Terminal Aerodrome Forecast
Issued by NWS

Home | Current Version | Previous Version | Text Only | Print | Product List | Glossary On
Versions: 1 2 3 4 5 6 7 8 9 10 11 12
000
FTUS46 KOTX 181123
TAFMWH
TAF
KMWH 181123Z 1812/1912 14004KT P6SM FEW250
     FM181800 22010KT P6SM SCT250
     FM182300 25014G22KT P6SM SCT250
     FM190100 29014G20KT P6SM SKC
     FM190600 28008KT P6SM SKC=

USA.gov is the U.S. government's official web portal to all federal, state and local government web resources and services.